• Join FlightAware (Why Join?)
  • Login
  • US Flag 
02:57AM EDT


 

Airport Tracker/Info


-or-


 

Live Flight TrackerFlight Track Log ✈ SKW6446 ✈ 28-Apr-2013 ✈ KLAX - KSMX

Flight Track Log - Related Links

Times and Time Zones

All times are in EDT time to prevent confusion due to time zone crossing. See the SKW6446 flight status page for this flight to view local times or setup timezone preferences in your user account.

Time Position Orientation Groundspeed Altitude Reporting Facility
EDT Latitude Longitude Course Direction KTS MPH feet Rate Location/Type
07:56PM 34.1186 -118.7762 300° West  Level Estimated
07:57PM 34.1624 -118.8685 300° West  Level Estimated
07:58PM 34.2062 -118.9608 300° West  Level Estimated
07:59PM 34.2499 -119.0533 300° West  Level Estimated
08:00PM 34.2935 -119.1459 300° West  Level Estimated
08:01PM 34.3371 -119.2385 300° West  Level Estimated
08:02PM 34.3806 -119.3313 300° West  Level Estimated
08:03PM 34.4240 -119.4241 300° West  Level Estimated
08:04PM 34.4674 -119.5170 300° West  Level Estimated
08:05PM 34.5107 -119.6101 299° West  Level Estimated
08:06PM 34.5539 -119.7032 299° West  Level Estimated
08:07PM 34.5971 -119.7964 299° West  Level Estimated
08:08PM 34.6401 -119.8898 299° West  Level Estimated
08:09PM 34.6832 -119.9832 299° West  Level Estimated
08:10PM 34.7261 -120.0767 299° West  Level Estimated
08:11PM 34.7689 -120.1703 299° West  Level Estimated
08:12PM 34.8117 -120.2641 299° West  Level Estimated
08:13PM 34.8545 -120.3579 299° West  Level Estimated
08:14PM 34.8971 -120.4518 299° West  Level Estimated
08:15PM 34.8999 -120.4581 299° West  Level Estimated
08:16PM 34.8999 -120.4581 328° Northwest  Level Estimated
08:17PM 34.8999 -120.4581 328° Northwest  Level Estimated
08:18PM 34.8999 -120.4581 328° Northwest  Level Estimated
08:19PM 34.8999 -120.4581 328° Northwest  Level Estimated
08:20PM 34.8999 -120.4581 328° Northwest  Level Estimated
08:21PM 34.8999 -120.4581 328° Northwest  Level Estimated
08:22PM 34.8999 -120.4581 328° Northwest  Level Estimated
08:23PM 34.8999 -120.4581 328° Northwest  Level Estimated
08:24PM 34.8999 -120.4581 328° Northwest  Level Estimated